My webcam more information My webcam


Thunder radar more information blitzortung!


Rain radar more information rain snow radar


Visit our other weather sites:

Template documentation
and downloads

And another site



Nearby METAR Reports

   
KAVP - Albrightsville, PA
Updated: Jul 22 2017 1:54 pm
Clear  
Clear  
   Wind: West 4.6 mph
Wind: West 4.6 mph
Temperature: 82.4°F
Heat Index: 84.2°F
Dew Point: 64.4°F
Humidity: 55%
Barometer: 29.88 inHg
Clouds: Clear
Visibility: 8 mi
Cloud details: Clear
KAVP 221754Z 26004KT 8SM CLR 28/18 A2988 RMK AO2 SLP108 T02830178 10289 20211 58016
KIWA - Apache Junction, AZ
Updated: Jul 22 2017 1:48 pm
Mostly Cloudy  
Mostly Cloudy  
   Wind: Calm
Wind: Calm
Temperature: 93.2°F
Heat Index: 96.8°F
Dew Point: 66.2°F
Humidity: 41%
Barometer: 29.92 inHg
Clouds: Mostly Cloudy
Visibility: 35 mi
Cloud details: Partly Cloudy 3353 m,
Mostly Cloudy 6096 m
KIWA 221748Z 00000KT 35SM SCT110 BKN200 34/19 A2992
KPKB - Blue Rock, OH
Updated: Jul 22 2017 2:50 pm
Nearby Thunderstorm, Light Rain, Mist, Mostly Cloudy  
Nearby Thunderstorm, Light Rain, Mist, Mostly Cloudy  
   Wind: Calm
Wind: Calm
Temperature: 77°F
Dew Point: 73.4°F
Humidity: 89%
Barometer: 29.89 inHg
Clouds: Mostly Cloudy
Visibility: 6 mi
Cloud details: Few Clouds 213 m,
Mostly Cloudy 1067 m,
Mostly Cloudy 1829 m
KPKB 221850Z 00000KT 6SM VCTS -RA BR FEW007 BKN035 BKN060 25/23 A2989 RMK AO2 LTG DSNT E AND SW TSE18B19E23 P0017
KHVN - Branford, CT
Updated: Jul 22 2017 1:53 pm
Clear  
Clear  
   Wind: South 6.9 mph
Wind: South 6.9 mph
Temperature: 82.4°F
Heat Index: 82.4°F
Dew Point: 62.6°F
Humidity: 51%
Barometer: 29.85 inHg
Clouds: Clear
Visibility: 10 mi
Cloud details: Clear
KHVN 221753Z 17006KT 10SM CLR 28/17 A2985 RMK AO2 SLP107 T02830167 10289 20244 58010
KPHX - Carefree, AZ
Updated: Jul 22 2017 2:51 pm
Partly Cloudy  
Partly Cloudy  
   Wind: varies 3.5 mph
Wind: varies 3.5 mph
Temperature: 96.8°F
Dew Point: 57.2°F
Humidity: 27%
Barometer: 29.86 inHg
Clouds: Partly Cloudy
Visibility: 10 mi
Cloud details: Few Clouds 3048 m,
Partly Cloudy 4877 m,
Partly Cloudy 6096 m
KPHX 221851Z VRB03KT 10SM FEW100 SCT160 SCT200 36/14 A2986 RMK AO2 SLP091 T03610144
 

Script developed by  Saratoga-weather.org Adapted for the template by  Weerstation Leuven

You find our weather info also at:

WeatherCloud

Weather Underground

Citizen Weather Observer Program (CWOP)

HAMweather, WeatherForYou, PWS Weather

Anything Weather